Pittsburgh, PA

2:10 AM EDT on March 28, 2015 (GMT -0400)
Allegheny County | | Change Station
CLOSE
Current Station
Airport
Location: Pittsburgh Allegheny Co.,
Elevation: 1253 ft
Nearby Weather Stations

Elev 1253 ft 40.35 °N, 79.92 °W | Updated 17 minutes ago

Overcast
Overcast
20 °F
Feels Like 10 °F
N
8
Wind Variable Wind from NNW

Today
High -- | Low -- °F
--% Chance of Precip.
Yesterday
High -- | Low -- °F
Precip. -- in
7:10 AM 7:39 PM
First Quarter, 59% visible
Pressure 30.04 in
Visibility 10.0 miles
Clouds Overcast 7000 ft
Windchill 10 °F
Dew Point 7 °F
Humidity 57%
Rainfall 0.00 in
Snow Depth Not available.
UV 0 out of 12
Pollen 4.50 out of 12
Air Quality Not available.
Flu Activity Not available.
METAR KAGC 280553Z 34007KT 10SM OVC070 M07/M14 A2998 RMK AO2 SLP171 60000 T10671139 11022 21067 50006

More Conditions Fewer Conditions

Pressure 30.04 in
Visibility 10.0 miles
Clouds Overcast 7000 ft
Windchill 10 °F
Dew Point 7 °F
Humidity 57%
Rainfall 0.00 in
Snow Depth Not available.
UV 0 out of 12
Pollen 4.50 out of 12
Air Quality Not available.
Flu Activity Not available.
METAR KAGC 280553Z 34007KT 10SM OVC070 M07/M14 A2998 RMK AO2 SLP171 60000 T10671139 11022 21067 50006

More Conditions Fewer Conditions

10-Day Weather Forecast

Almanac

Astronomy

Mar. 28, 2015 Rise Set
Actual Time
Civil Twilight
Nautical Twilight
Astronomical Twilight
Moon
Length of Visible Light
Length of Day
Tomorrow will be .
, % of the Moon is Illuminated

Today's Extremes

State Highs State Lows

Community

WunderPhotos

Upload Photos

1,808,937 photos uploaded!

WunderBlogs® & News

Nearby

Air Quality

  Air Quality AQ Index Pollutant
Not available.

Snow Depth

Station Depth Elevation

Earthquake Activity

City Distance Mag. Time & Date
Minimum magnitude displayed is 2.5.

Coastal Water Temperatures

Place Temperature

Stations

Nearby Weather Stations

Station Location Temp. Windchill Dew Point Humidity Wind Precip. Elev Updated Type